Time;durP1;ratioP1;P1;durP2;ratioP2;P2;SDS_P1;SDS_P2;PMS_P1;PMS_P2;Temp;Humidity;BMP_temperature;BMP_pressure;BME280_temperature;BME280_humidity;BME280_pressure;Samples;Min_cycle;Max_cycle;Signal;HPM_P1;HPM_P2
2023/06/19 00:01:58;;;;;;;3.33;2.90;;;26.80;42.70;;;;;;5038021;28;20017;-67
2023/06/19 00:04:23;;;;;;;3.22;2.65;;;26.80;42.70;;;;;;5037542;28;20539;-67
2023/06/19 00:06:49;;;;;;;3.50;2.78;;;26.80;43.30;;;;;;5038637;28;20029;-67
2023/06/19 00:09:15;;;;;;;3.10;2.70;;;26.80;42.70;;;;;;5034970;28;20090;-67
2023/06/19 00:11:40;;;;;;;3.22;2.70;;;26.80;42.70;;;;;;5038444;28;20031;-67
2023/06/19 00:14:06;;;;;;;2.80;2.40;;;26.80;42.70;;;;;;5036635;28;20037;-67
2023/06/19 00:16:32;;;;;;;3.15;2.60;;;26.80;42.70;;;;;;5037136;28;20482;-67
2023/06/19 00:18:58;;;;;;;3.10;2.40;;;26.80;42.70;;;;;;5038717;28;20477;-67
2023/06/19 00:21:25;;;;;;;2.95;2.60;;;26.80;42.70;;;;;;5036779;28;20104;-67
2023/06/19 00:23:51;;;;;;;3.20;2.78;;;26.80;42.70;;;;;;5039012;28;20056;-67
2023/06/19 00:26:17;;;;;;;3.63;2.88;;;26.80;42.70;;;;;;5038549;28;20029;-67
2023/06/19 00:28:45;;;;;;;3.50;3.00;;;26.70;42.60;;;;;;5037655;28;20327;-66
2023/06/19 00:31:13;;;;;;;3.03;2.60;;;26.80;42.70;;;;;;5039857;28;20489;-68
2023/06/19 00:33:39;;;;;;;3.23;2.53;;;26.80;43.30;;;;;;5037582;28;20052;-67
2023/06/19 00:36:12;;;;;;;3.25;2.65;;;26.80;42.70;;;;;;5039407;28;20053;-67
2023/06/19 00:38:39;;;;;;;3.25;2.90;;;26.80;42.70;;;;;;5050280;28;20037;-67
2023/06/19 00:41:05;;;;;;;3.25;2.85;;;26.70;42.60;;;;;;5035139;28;20028;-67
2023/06/19 00:43:31;;;;;;;3.20;2.90;;;26.80;42.80;;;;;;5036221;28;20033;-67
2023/06/19 00:46:01;;;;;;;3.00;2.58;;;26.70;42.60;;;;;;5037707;28;20029;-66
2023/06/19 00:48:28;;;;;;;3.17;2.75;;;26.70;42.60;;;;;;5036317;28;20021;-67
2023/06/19 00:50:55;;;;;;;3.30;2.88;;;26.70;42.60;;;;;;5042067;28;20473;-67
2023/06/19 00:53:22;;;;;;;3.30;2.70;;;26.80;42.70;;;;;;5041105;28;20448;-67
2023/06/19 00:55:51;;;;;;;2.90;2.60;;;26.80;42.70;;;;;;5042248;28;20029;-68
2023/06/19 00:58:17;;;;;;;3.03;2.63;;;26.80;42.70;;;;;;5040641;28;20071;-66
2023/06/19 01:00:43;;;;;;;3.20;2.53;;;26.80;42.70;;;;;;5043828;28;20029;-66
2023/06/19 01:03:09;;;;;;;3.22;2.70;;;26.80;42.70;;;;;;5040981;28;20508;-66
2023/06/19 01:05:35;;;;;;;2.97;2.50;;;26.70;42.60;;;;;;5040949;28;20051;-66
2023/06/19 01:08:04;;;;;;;3.20;2.70;;;26.70;42.60;;;;;;5040849;28;20041;-67
2023/06/19 01:10:36;;;;;;;3.17;2.70;;;26.70;42.60;;;;;;5039662;28;20026;-67
2023/06/19 01:13:10;;;;;;;3.22;2.92;;;26.70;42.70;;;;;;5041018;28;20047;-67
2023/06/19 01:15:38;;;;;;;3.28;2.75;;;26.70;42.70;;;;;;5040897;28;20029;-67
2023/06/19 01:18:04;;;;;;;3.22;2.60;;;26.70;42.60;;;;;;5038428;28;20108;-67
2023/06/19 01:20:30;;;;;;;2.90;2.40;;;26.70;42.60;;;;;;5042591;28;20518;-67
2023/06/19 01:22:56;;;;;;;3.45;2.60;;;26.70;42.60;;;;;;5040759;28;20029;-66
2023/06/19 01:25:25;;;;;;;3.15;2.60;;;26.70;42.60;;;;;;5041560;28;20486;-67
2023/06/19 01:27:51;;;;;;;3.17;2.60;;;26.70;42.70;;;;;;5039556;28;20021;-66
2023/06/19 01:30:17;;;;;;;2.95;2.55;;;26.70;42.60;;;;;;5041374;28;20041;-66
2023/06/19 01:33:09;;;;;;;3.05;2.60;;;26.70;42.60;;;;;;5038577;28;20071;-67
2023/06/19 01:35:38;;;;;;;3.20;2.67;;;26.70;42.70;;;;;;5041803;28;20057;-67
2023/06/19 01:38:05;;;;;;;;;;;26.70;42.70;;;;;;5043259;28;20075;-67
2023/06/19 01:40:32;;;;;;;3.10;2.60;;;26.70;42.60;;;;;;5042404;28;19921;-66
2023/06/19 01:43:02;;;;;;;3.42;2.47;;;26.70;42.70;;;;;;5041852;28;20025;-66
2023/06/19 01:45:28;;;;;;;3.17;2.72;;;26.70;42.60;;;;;;5043115;28;20852;-67
2023/06/19 01:47:54;;;;;;;3.00;2.30;;;26.60;42.60;;;;;;5041286;28;20056;-66
2023/06/19 01:50:22;;;;;;;3.20;2.53;;;26.70;42.60;;;;;;5040957;28;20072;-66
2023/06/19 01:52:47;;;;;;;3.42;2.80;;;26.60;42.60;;;;;;5044659;28;20029;-66
2023/06/19 01:55:14;;;;;;;3.13;2.80;;;26.70;42.70;;;;;;5042603;28;20033;-67
2023/06/19 01:57:40;;;;;;;3.08;2.53;;;26.70;42.70;;;;;;5039977;28;20111;-67
2023/06/19 02:00:07;;;;;;;2.90;2.55;;;26.70;42.70;;;;;;5040912;28;20469;-67
2023/06/19 02:02:33;;;;;;;2.90;2.42;;;26.60;42.60;;;;;;5041440;28;20033;-67
2023/06/19 02:04:59;;;;;;;3.28;2.80;;;26.60;42.60;;;;;;5053779;28;20503;-68
2023/06/19 02:07:25;;;;;;;3.25;2.60;;;26.60;42.60;;;;;;5042356;28;20032;-66
2023/06/19 02:09:50;;;;;;;3.33;2.60;;;26.60;42.60;;;;;;5041577;28;20484;-66
2023/06/19 02:12:16;;;;;;;3.00;2.50;;;26.60;42.60;;;;;;5039134;28;20033;-67
2023/06/19 02:14:42;;;;;;;3.08;2.60;;;26.60;42.60;;;;;;5042870;28;20508;-67
2023/06/19 02:17:07;;;;;;;3.10;2.70;;;26.60;42.60;;;;;;5039454;28;20111;-67
2023/06/19 02:19:33;;;;;;;3.03;2.70;;;26.60;42.70;;;;;;5041155;28;20032;-66
2023/06/19 02:21:59;;;;;;;2.80;2.50;;;26.60;42.70;;;;;;5043475;28;20028;-67
2023/06/19 02:24:24;;;;;;;3.72;2.65;;;26.60;42.60;;;;;;5041071;28;20078;-66
2023/06/19 02:26:50;;;;;;;3.35;2.58;;;26.60;42.60;;;;;;5041158;28;20109;-66
2023/06/19 02:29:16;;;;;;;2.97;2.50;;;26.60;42.60;;;;;;5038568;28;20032;-67
2023/06/19 02:31:42;;;;;;;2.60;2.40;;;26.60;42.70;;;;;;5041160;28;20111;-67
2023/06/19 02:34:11;;;;;;;2.83;2.45;;;26.60;42.70;;;;;;5041920;28;20389;-67
2023/06/19 02:36:37;;;;;;;2.78;2.50;;;26.60;42.70;;;;;;5040924;28;20029;-67
2023/06/19 02:39:08;;;;;;;3.20;2.80;;;26.60;42.70;;;;;;5041605;28;20460;-67
2023/06/19 02:41:34;;;;;;;2.97;2.45;;;26.60;42.70;;;;;;5041134;28;20029;-67
2023/06/19 02:43:59;;;;;;;3.40;2.63;;;26.60;42.70;;;;;;5040029;28;20025;-67
2023/06/19 02:46:25;;;;;;;3.00;2.40;;;26.60;42.70;;;;;;5037511;28;20032;-67
2023/06/19 02:48:50;;;;;;;2.80;2.30;;;26.60;42.70;;;;;;5039269;28;20033;-67
2023/06/19 02:51:16;;;;;;;3.10;2.50;;;26.60;42.70;;;;;;5040974;28;20838;-67
2023/06/19 02:53:43;;;;;;;2.88;2.45;;;26.50;42.60;;;;;;5041148;28;20116;-67
2023/06/19 02:56:09;;;;;;;3.00;2.30;;;26.60;42.70;;;;;;5039940;28;20029;-68
2023/06/19 02:58:37;;;;;;;2.90;2.50;;;26.50;42.60;;;;;;5038748;28;20021;-67
2023/06/19 03:01:03;;;;;;;3.30;2.65;;;26.60;42.70;;;;;;5040539;28;20474;-68
2023/06/19 03:03:29;;;;;;;3.10;2.60;;;26.60;42.70;;;;;;5039810;28;20036;-67
2023/06/19 03:05:55;;;;;;;3.15;2.65;;;26.60;42.70;;;;;;5039356;28;20100;-68
2023/06/19 03:08:20;;;;;;;2.88;2.47;;;26.60;42.70;;;;;;5038146;28;20111;-67
2023/06/19 03:10:46;;;;;;;3.20;2.63;;;26.60;42.70;;;;;;5039642;28;20028;-68
2023/06/19 03:13:13;;;;;;;2.90;2.40;;;26.50;42.60;;;;;;5036898;28;20037;-67
2023/06/19 03:15:39;;;;;;;3.00;2.50;;;26.50;42.60;;;;;;5037216;28;20033;-68
2023/06/19 03:18:07;;;;;;;2.85;2.35;;;26.50;42.60;;;;;;5039206;28;20070;-67
2023/06/19 03:20:33;;;;;;;3.10;2.50;;;26.50;42.60;;;;;;5038955;28;20025;-67
2023/06/19 03:22:58;;;;;;;2.95;2.40;;;26.50;42.70;;;;;;5039141;28;20121;-68
2023/06/19 03:25:24;;;;;;;2.85;2.50;;;26.50;42.70;;;;;;5039087;28;20029;-67
2023/06/19 03:27:49;;;;;;;3.13;2.47;;;26.50;42.70;;;;;;5039689;28;20030;-67
2023/06/19 03:30:18;;;;;;;2.80;2.40;;;26.50;42.70;;;;;;5038153;28;20026;-67
2023/06/19 03:32:44;;;;;;;3.28;2.50;;;26.50;42.70;;;;;;5038664;28;20025;-67
2023/06/19 03:35:10;;;;;;;3.08;2.70;;;26.50;42.70;;;;;;5039575;28;20079;-66
2023/06/19 03:37:36;;;;;;;2.90;2.42;;;26.50;42.70;;;;;;5040690;28;20532;-67
2023/06/19 03:40:03;;;;;;;2.97;2.58;;;26.50;42.70;;;;;;5041383;28;20032;-66
2023/06/19 03:42:28;;;;;;;2.90;2.47;;;26.50;42.70;;;;;;5038015;28;20024;-67
2023/06/19 03:44:54;;;;;;;2.97;2.50;;;26.50;42.70;;;;;;5039544;28;20021;-67
2023/06/19 03:47:21;;;;;;;3.17;2.60;;;26.50;42.70;;;;;;5039005;28;20057;-67
2023/06/19 03:49:48;;;;;;;3.20;2.60;;;26.50;42.70;;;;;;5036260;28;20051;-66
2023/06/19 03:52:14;;;;;;;3.15;2.45;;;26.50;42.80;;;;;;5038449;28;20020;-67
2023/06/19 03:54:39;;;;;;;2.85;2.40;;;26.50;42.70;;;;;;5038920;28;20041;-67
2023/06/19 03:57:06;;;;;;;2.78;2.30;;;26.50;42.70;;;;;;5037639;28;20500;-66
2023/06/19 03:59:32;;;;;;;2.80;2.40;;;26.40;42.70;;;;;;5038287;28;20021;-68
2023/06/19 04:01:57;;;;;;;3.75;2.80;;;26.50;42.70;;;;;;5038116;28;20021;-66
2023/06/19 04:04:24;;;;;;;2.95;2.50;;;26.50;42.70;;;;;;5036588;28;20026;-68
2023/06/19 04:06:49;;;;;;;2.92;2.53;;;26.50;42.70;;;;;;5038499;28;20087;-66
2023/06/19 04:09:15;;;;;;;2.80;2.40;;;26.50;42.70;;;;;;5037489;28;20120;-66
2023/06/19 04:11:41;;;;;;;3.30;2.80;;;26.50;42.70;;;;;;5040736;28;20061;-66
2023/06/19 04:14:07;;;;;;;3.67;3.00;;;26.40;42.50;;;;;;5036223;28;20473;-66
2023/06/19 04:16:32;;;;;;;3.60;3.20;;;26.40;42.50;;;;;;5041075;28;20370;-66
2023/06/19 04:18:58;;;;;;;3.97;3.53;;;26.40;42.50;;;;;;5038089;28;20171;-66
2023/06/19 04:21:24;;;;;;;4.35;3.63;;;26.40;42.60;;;;;;5038710;28;20430;-66
2023/06/19 04:23:50;;;;;;;7.72;4.38;;;26.40;42.70;;;;;;5037144;28;20028;-66
2023/06/19 04:26:15;;;;;;;4.10;3.53;;;26.40;42.70;;;;;;5037694;28;20029;-66
2023/06/19 04:28:41;;;;;;;5.88;4.55;;;26.30;42.60;;;;;;5039338;28;20337;-66
2023/06/19 04:31:07;;;;;;;4.40;4.00;;;26.30;42.50;;;;;;5038450;28;20033;-68
2023/06/19 04:33:33;;;;;;;4.65;4.13;;;26.30;42.50;;;;;;5041018;28;20053;-66
2023/06/19 04:36:00;;;;;;;4.60;4.20;;;26.30;42.50;;;;;;5039535;28;20072;-66
2023/06/19 04:38:26;;;;;;;4.97;4.47;;;26.30;42.60;;;;;;5038585;28;20091;-66
2023/06/19 04:40:51;;;;;;;5.20;4.28;;;26.30;42.60;;;;;;5038482;28;20037;-66
2023/06/19 04:43:17;;;;;;;4.80;4.30;;;26.30;42.70;;;;;;5039764;28;20038;-66
2023/06/19 04:45:43;;;;;;;7.13;4.50;;;26.30;42.80;;;;;;5036982;28;20581;-66
2023/06/19 04:48:09;;;;;;;4.80;4.30;;;26.30;42.90;;;;;;5036847;28;20045;-66
2023/06/19 04:50:35;;;;;;;5.72;4.78;;;26.30;43.10;;;;;;5037537;28;20037;-67
2023/06/19 04:53:00;;;;;;;5.13;4.60;;;26.30;43.10;;;;;;5037753;28;20033;-66
2023/06/19 04:55:26;;;;;;;4.88;4.38;;;26.30;43.10;;;;;;5037677;28;20025;-66
2023/06/19 04:57:52;;;;;;;5.45;4.40;;;26.30;43.10;;;;;;5036366;28;20021;-66
2023/06/19 05:00:19;;;;;;;5.82;4.40;;;26.30;43.20;;;;;;5037994;28;20017;-66
2023/06/19 05:02:46;;;;;;;5.28;4.38;;;26.30;43.20;;;;;;5038594;28;20029;-66
2023/06/19 05:05:13;;;;;;;5.28;4.22;;;26.30;43.20;;;;;;5036577;28;20029;-66
2023/06/19 05:07:39;;;;;;;4.53;4.07;;;26.30;43.20;;;;;;5035549;28;20094;-66
2023/06/19 05:10:05;;;;;;;4.38;3.97;;;26.30;43.20;;;;;;5038991;28;20029;-66
2023/06/19 05:12:30;;;;;;;4.63;4.00;;;26.30;43.20;;;;;;5037278;28;20075;-66
2023/06/19 05:14:56;;;;;;;4.88;4.20;;;26.30;43.20;;;;;;5037583;28;20056;-66
2023/06/19 05:17:21;;;;;;;5.00;3.80;;;26.30;43.20;;;;;;5042323;28;20025;-66
2023/06/19 05:19:47;;;;;;;5.07;3.83;;;26.30;43.20;;;;;;5038232;28;20026;-66
2023/06/19 05:22:13;;;;;;;5.00;4.07;;;26.20;43.10;;;;;;5038980;28;20063;-66
2023/06/19 05:24:39;;;;;;;4.78;4.28;;;26.30;43.20;;;;;;5039633;28;20564;-66
2023/06/19 05:27:05;;;;;;;4.43;4.03;;;26.30;43.20;;;;;;5036235;28;20033;-67
2023/06/19 05:29:31;;;;;;;4.35;3.75;;;26.20;43.10;;;;;;5039091;28;20104;-66
2023/06/19 05:31:57;;;;;;;4.13;3.58;;;26.30;43.20;;;;;;5037550;28;20436;-66
2023/06/19 05:34:22;;;;;;;3.92;3.40;;;26.20;43.20;;;;;;5038312;28;20037;-66
2023/06/19 05:36:48;;;;;;;4.10;3.50;;;26.20;43.20;;;;;;5039973;28;20037;-65
2023/06/19 05:39:14;;;;;;;4.57;3.35;;;26.20;43.20;;;;;;5041365;28;20025;-66
2023/06/19 05:41:40;;;;;;;4.32;3.70;;;26.20;43.30;;;;;;5041239;28;20156;-66
2023/06/19 05:44:06;;;;;;;4.32;3.83;;;26.20;43.40;;;;;;5040942;28;20524;-65
2023/06/19 05:46:31;;;;;;;5.30;3.70;;;26.20;43.30;;;;;;5039981;28;20116;-66
2023/06/19 05:48:57;;;;;;;5.88;3.78;;;26.20;43.20;;;;;;5043466;28;20033;-66
2023/06/19 05:51:22;;;;;;;4.13;3.50;;;26.20;43.20;;;;;;5040506;28;20048;-65
2023/06/19 05:53:49;;;;;;;3.95;3.50;;;26.20;43.20;;;;;;5042396;28;20021;-66
2023/06/19 05:56:15;;;;;;;4.10;3.70;;;26.20;43.20;;;;;;5040711;28;20021;-66
2023/06/19 05:58:41;;;;;;;4.55;3.78;;;26.20;43.30;;;;;;5041356;28;20074;-66
2023/06/19 06:01:07;;;;;;;4.15;3.70;;;26.20;43.30;;;;;;5042461;28;20424;-66
2023/06/19 06:03:33;;;;;;;4.72;3.85;;;26.20;43.30;;;;;;5041104;28;20052;-65
2023/06/19 06:06:02;;;;;;;4.13;3.42;;;26.20;43.30;;;;;;5042330;28;20025;-65
2023/06/19 06:08:31;;;;;;;4.10;3.40;;;26.20;43.30;;;;;;5039223;28;20103;-65
2023/06/19 06:10:57;;;;;;;4.30;3.80;;;26.20;43.30;;;;;;5040633;28;20029;-66
2023/06/19 06:13:23;;;;;;;4.50;3.90;;;26.20;43.30;;;;;;5040970;28;20083;-65
2023/06/19 06:15:49;;;;;;;4.22;3.45;;;26.20;43.30;;;;;;5039933;28;20041;-66
2023/06/19 06:18:15;;;;;;;4.82;3.80;;;26.20;43.30;;;;;;5041667;28;20393;-66
2023/06/19 06:20:40;;;;;;;4.18;3.60;;;26.20;43.30;;;;;;5041840;28;20033;-65
2023/06/19 06:23:06;;;;;;;4.32;3.72;;;26.20;43.30;;;;;;5042349;28;20103;-65
2023/06/19 06:25:31;;;;;;;4.20;3.80;;;26.20;43.30;;;;;;5046960;28;20040;-66
2023/06/19 06:27:57;;;;;;;4.97;3.90;;;26.20;43.30;;;;;;5041534;28;20540;-66
2023/06/19 06:30:23;;;;;;;4.30;3.88;;;26.20;43.30;;;;;;5040447;28;20031;-65
2023/06/19 06:32:49;;;;;;;4.18;3.40;;;26.20;43.30;;;;;;5041458;28;20477;-66
2023/06/19 06:35:15;;;;;;;3.95;3.30;;;26.20;43.30;;;;;;5040270;28;20029;-65
2023/06/19 06:37:41;;;;;;;3.50;3.20;;;26.20;43.30;;;;;;5042293;28;20078;-66
2023/06/19 06:40:11;;;;;;;4.43;3.70;;;26.20;43.30;;;;;;5042250;28;20026;-66
2023/06/19 06:42:37;;;;;;;3.75;3.35;;;26.20;43.30;;;;;;5042912;28;20682;-65
2023/06/19 06:45:05;;;;;;;4.30;3.67;;;26.10;43.30;;;;;;5041014;28;20021;-65
2023/06/19 06:47:30;;;;;;;4.28;3.28;;;26.20;43.30;;;;;;5038616;28;20466;-65
2023/06/19 06:49:56;;;;;;;3.80;3.40;;;26.20;43.30;;;;;;5039178;28;20036;-66
2023/06/19 06:52:22;;;;;;;4.22;3.53;;;26.20;43.30;;;;;;5042061;28;20094;-66
2023/06/19 06:54:47;;;;;;;4.15;3.75;;;26.20;43.30;;;;;;5040172;28;20147;-66
2023/06/19 06:57:13;;;;;;;3.70;3.13;;;26.20;43.30;;;;;;5040833;28;20425;-65
2023/06/19 06:59:38;;;;;;;3.65;3.22;;;26.20;43.30;;;;;;5038867;28;20450;-65
2023/06/19 07:02:04;;;;;;;3.67;3.20;;;26.20;43.30;;;;;;5038735;28;20029;-65
2023/06/19 07:04:30;;;;;;;3.90;3.50;;;26.20;43.40;;;;;;5038999;28;20103;-66
2023/06/19 07:06:55;;;;;;;4.65;3.60;;;26.20;43.30;;;;;;5042504;28;20021;-66
2023/06/19 07:09:21;;;;;;;4.55;3.55;;;26.20;43.40;;;;;;5040230;28;20032;-65
2023/06/19 07:11:47;;;;;;;4.80;3.63;;;26.20;43.40;;;;;;5037159;28;20124;-65
2023/06/19 07:14:12;;;;;;;3.85;3.30;;;26.10;43.30;;;;;;5038355;28;20025;-66
2023/06/19 07:16:38;;;;;;;3.67;3.20;;;26.10;43.30;;;;;;5036060;28;20116;-66
2023/06/19 07:19:03;;;;;;;3.65;3.25;;;26.10;43.30;;;;;;5040745;28;20044;-66
2023/06/19 07:21:30;;;;;;;3.92;3.53;;;26.10;43.30;;;;;;5038752;28;20540;-66
2023/06/19 07:23:56;;;;;;;3.63;3.10;;;26.10;43.30;;;;;;5039393;28;20422;-66
2023/06/19 07:26:21;;;;;;;4.32;3.60;;;26.10;43.30;;;;;;5038450;28;20473;-66
2023/06/19 07:28:47;;;;;;;4.22;3.50;;;26.10;43.30;;;;;;5039081;28;20022;-66
2023/06/19 07:31:13;;;;;;;3.95;3.47;;;26.10;43.30;;;;;;5037770;28;20039;-66
2023/06/19 07:33:39;;;;;;;3.78;3.15;;;26.10;43.30;;;;;;5038237;28;20658;-65
2023/06/19 07:36:05;;;;;;;4.05;3.38;;;26.10;43.30;;;;;;5040766;28;20979;-66
2023/06/19 07:38:30;;;;;;;4.43;3.20;;;26.10;43.30;;;;;;5037522;28;20022;-66
2023/06/19 07:40:56;;;;;;;4.20;3.60;;;26.10;43.30;;;;;;5039996;28;20048;-66
2023/06/19 07:43:24;;;;;;;3.03;2.72;;;26.10;43.30;;;;;;5039539;28;20495;-66
2023/06/19 07:45:50;;;;;;;4.45;3.47;;;26.10;43.30;;;;;;5038308;28;20120;-66
2023/06/19 07:48:16;;;;;;;4.68;3.38;;;26.10;43.30;;;;;;5038210;28;20181;-65
2023/06/19 07:50:42;;;;;;;3.50;3.17;;;26.10;43.30;;;;;;5039712;28;20116;-66
2023/06/19 07:53:07;;;;;;;3.88;3.28;;;26.10;43.30;;;;;;5038569;28;20033;-66
2023/06/19 07:55:35;;;;;;;4.10;3.30;;;26.10;43.30;;;;;;5040915;28;20378;-66
2023/06/19 07:58:01;;;;;;;3.90;3.40;;;26.10;43.30;;;;;;5037166;28;20025;-66
2023/06/19 08:00:26;;;;;;;3.45;2.97;;;26.10;43.30;;;;;;5038140;28;20040;-66
2023/06/19 08:02:52;;;;;;;3.60;3.20;;;26.10;43.40;;;;;;5039074;28;20375;-66
2023/06/19 08:05:18;;;;;;;3.90;3.20;;;26.10;43.30;;;;;;5040218;28;20576;-66
2023/06/19 08:07:44;;;;;;;4.00;3.35;;;26.10;43.40;;;;;;5037233;28;20536;-66
2023/06/19 08:10:10;;;;;;;4.10;3.20;;;26.10;43.40;;;;;;5037939;28;20156;-66
2023/06/19 08:12:36;;;;;;;3.45;3.00;;;26.10;43.30;;;;;;5039810;28;20036;-66
2023/06/19 08:15:02;;;;;;;3.20;2.80;;;26.10;43.40;;;;;;5037564;28;20033;-66
2023/06/19 08:17:27;;;;;;;3.38;3.00;;;26.10;43.40;;;;;;5036498;28;20021;-65
2023/06/19 08:19:53;;;;;;;3.90;3.05;;;26.10;43.40;;;;;;5039089;28;20025;-66
2023/06/19 08:22:18;;;;;;;4.32;3.20;;;26.10;43.40;;;;;;5041784;28;20029;-66
2023/06/19 08:24:44;;;;;;;3.97;3.03;;;26.10;43.40;;;;;;5037172;28;20029;-66
2023/06/19 08:27:09;;;;;;;3.90;3.28;;;26.10;43.40;;;;;;5038265;28;20079;-66
2023/06/19 08:29:35;;;;;;;3.60;3.13;;;26.00;43.30;;;;;;5037424;28;20029;-66
2023/06/19 08:32:01;;;;;;;3.67;3.22;;;26.00;43.30;;;;;;5035577;28;20025;-66
2023/06/19 08:34:27;;;;;;;3.83;3.30;;;26.10;43.40;;;;;;5041981;28;20033;-66
2023/06/19 08:36:53;;;;;;;3.65;3.20;;;26.10;43.40;;;;;;5039254;28;20092;-66
2023/06/19 08:39:20;;;;;;;3.75;3.05;;;26.10;43.40;;;;;;5037775;28;20136;-66
2023/06/19 08:41:45;;;;;;;4.05;3.15;;;26.10;43.40;;;;;;5039761;28;20401;-66
2023/06/19 08:44:11;;;;;;;3.70;3.20;;;26.10;43.40;;;;;;5037060;28;20029;-66
2023/06/19 08:46:37;;;;;;;4.43;3.17;;;26.10;43.50;;;;;;5037878;28;20507;-66
2023/06/19 08:49:03;;;;;;;3.45;3.08;;;26.10;43.40;;;;;;5037098;28;20416;-66
2023/06/19 08:51:32;;;;;;;3.40;3.05;;;26.00;43.40;;;;;;5038394;28;20116;-66
2023/06/19 08:54:05;;;;;;;3.60;3.13;;;26.10;43.40;;;;;;5038353;28;20037;-66
2023/06/19 08:56:34;;;;;;;3.40;2.90;;;26.10;43.50;;;;;;5037596;28;20539;-66
2023/06/19 08:59:17;;;;;;;3.67;3.17;;;26.10;43.40;;;;;;5039994;28;20034;-66
2023/06/19 09:01:53;;;;;;;4.40;3.10;;;26.10;43.50;;;;;;5036256;28;20501;-66
2023/06/19 09:04:30;;;;;;;3.90;3.15;;;26.00;43.40;;;;;;5036517;28;20025;-66
2023/06/19 09:06:57;;;;;;;3.33;2.90;;;26.10;43.50;;;;;;5039270;28;20115;-66
2023/06/19 09:09:25;;;;;;;3.58;3.05;;;26.10;43.50;;;;;;5039682;28;20121;-66
2023/06/19 09:12:08;;;;;;;3.70;3.30;;;26.10;43.50;;;;;;5042206;28;20036;-66
2023/06/19 09:14:35;;;;;;;3.40;2.95;;;26.10;43.50;;;;;;5041061;28;20415;-66
2023/06/19 09:17:05;;;;;;;3.38;3.00;;;26.10;43.50;;;;;;5040405;28;20053;-66
2023/06/19 09:19:34;;;;;;;3.22;2.92;;;26.10;43.50;;;;;;5044194;28;20037;-66
2023/06/19 09:22:07;;;;;;;3.72;3.22;;;26.00;43.40;;;;;;5037633;28;20052;-66
2023/06/19 09:24:41;;;;;;;3.75;3.05;;;26.10;43.50;;;;;;5037979;28;20415;-66
2023/06/19 09:27:14;;;;;;;3.60;3.03;;;26.00;43.40;;;;;;5042824;28;20037;-66
2023/06/19 09:29:44;;;;;;;3.75;3.15;;;26.10;43.50;;;;;;5042833;28;20481;-66
2023/06/19 09:32:22;;;;;;;3.80;3.08;;;26.10;43.50;;;;;;5038857;28;20078;-66
2023/06/19 09:34:50;;;;;;;3.42;3.00;;;26.00;43.50;;;;;;5040842;28;20021;-66
2023/06/19 09:37:23;;;;;;;3.70;3.15;;;26.00;43.50;;;;;;5043421;28;20095;-66
2023/06/19 09:39:53;;;;;;;3.72;3.05;;;26.10;43.50;;;;;;5040240;28;20539;-66
2023/06/19 09:42:30;;;;;;;3.63;3.00;;;26.00;43.50;;;;;;5039730;28;20122;-66
2023/06/19 09:45:01;;;;;;;3.80;3.30;;;26.00;43.50;;;;;;5040281;28;20040;-66
2023/06/19 09:47:31;;;;;;;3.35;2.83;;;26.00;43.50;;;;;;5040678;28;20039;-66
2023/06/19 09:49:57;;;;;;;3.28;2.80;;;26.00;43.50;;;;;;5042251;28;20433;-66
2023/06/19 09:52:24;;;;;;;3.55;3.05;;;26.00;43.50;;;;;;5041578;28;20033;-66
2023/06/19 09:54:53;;;;;;;3.10;2.58;;;26.00;43.50;;;;;;5041234;28;20033;-66
2023/06/19 09:57:20;;;;;;;3.60;2.90;;;26.00;43.50;;;;;;5040620;28;20059;-66
2023/06/19 09:59:58;;;;;;;3.00;2.60;;;26.00;43.50;;;;;;5040202;28;20022;-66
2023/06/19 10:02:27;;;;;;;3.40;2.72;;;26.00;43.50;;;;;;5041409;28;20045;-66
2023/06/19 10:04:55;;;;;;;4.10;3.00;;;26.00;43.50;;;;;;5042831;28;20500;-66
2023/06/19 10:07:32;;;;;;;3.05;2.60;;;26.00;43.50;;;;;;5055781;28;20060;-66
2023/06/19 10:10:04;;;;;;;3.20;2.80;;;26.00;43.50;;;;;;5039715;28;20472;-65
2023/06/19 10:12:45;;;;;;;3.25;2.60;;;26.00;43.50;;;;;;5042160;28;20105;-66
2023/06/19 10:15:11;;;;;;;3.20;2.85;;;26.00;43.50;;;;;;5043546;28;20091;-66
2023/06/19 10:17:42;;;;;;;3.13;2.40;;;26.00;43.60;;;;;;5040905;28;20078;-66
2023/06/19 10:20:22;;;;;;;3.10;2.67;;;26.00;43.50;;;;;;5043971;28;20497;-66
2023/06/19 10:23:00;;;;;;;3.10;2.70;;;26.00;44.10;;;;;;5041324;28;20029;-65
2023/06/19 10:25:29;;;;;;;3.17;2.50;;;26.00;43.60;;;;;;5047128;28;20112;-66
2023/06/19 10:27:55;;;;;;;3.15;2.70;;;26.00;43.60;;;;;;5047268;28;20030;-66
2023/06/19 10:30:21;;;;;;;3.20;2.67;;;26.00;43.60;;;;;;5040047;28;20037;-66
2023/06/19 10:32:48;;;;;;;3.03;2.45;;;26.00;43.60;;;;;;5035050;28;20432;-66
2023/06/19 10:35:14;;;;;;;2.88;2.50;;;26.00;43.70;;;;;;5040595;28;20397;-66
2023/06/19 10:37:40;;;;;;;2.90;2.60;;;26.10;43.70;;;;;;5041570;28;20025;-66
2023/06/19 10:40:09;;;;;;;3.20;2.80;;;26.00;43.60;;;;;;5041800;28;20563;-66
2023/06/19 10:42:36;;;;;;;3.47;2.60;;;26.00;43.60;;;;;;5046215;28;20029;-66
2023/06/19 10:45:09;;;;;;;3.13;2.55;;;26.10;43.70;;;;;;5038304;28;20476;-66
2023/06/19 10:47:35;;;;;;;3.15;2.58;;;26.00;43.60;;;;;;5037685;28;20176;-67
2023/06/19 10:50:01;;;;;;;3.08;2.40;;;26.00;43.60;;;;;;5039989;28;20222;-66
2023/06/19 10:52:30;;;;;;;3.30;2.60;;;26.00;43.60;;;;;;5041346;28;20029;-66
2023/06/19 10:54:56;;;;;;;2.95;2.50;;;26.00;43.60;;;;;;5037784;28;20045;-66
2023/06/19 10:57:29;;;;;;;2.80;2.40;;;26.00;43.70;;;;;;5042773;28;20095;-66
2023/06/19 10:59:55;;;;;;;3.15;2.63;;;26.00;43.80;;;;;;5055760;28;20044;-66
2023/06/19 11:02:22;;;;;;;3.40;2.90;;;26.00;43.80;;;;;;5045581;28;20025;-66
2023/06/19 11:04:48;;;;;;;3.05;2.60;;;26.00;43.80;;;;;;5047832;28;20063;-67
2023/06/19 11:07:13;;;;;;;3.22;2.65;;;26.10;43.90;;;;;;5049687;28;20052;-67
2023/06/19 11:09:39;;;;;;;3.20;2.60;;;26.10;43.90;;;;;;5050872;28;20449;-67
2023/06/19 11:12:07;;;;;;;3.30;2.70;;;26.10;43.90;;;;;;5040364;28;20026;-66
2023/06/19 11:14:39;;;;;;;3.15;2.55;;;26.10;44.00;;;;;;5040434;28;20370;-66
2023/06/19 11:17:05;;;;;;;3.42;2.88;;;26.10;44.00;;;;;;5039032;28;20021;-67
2023/06/19 11:19:33;;;;;;;3.10;2.60;;;26.10;44.20;;;;;;5039403;28;20066;-65
2023/06/19 11:22:00;;;;;;;3.05;2.53;;;26.10;44.30;;;;;;5037888;28;20020;-66
2023/06/19 11:24:26;;;;;;;3.13;2.65;;;26.20;44.30;;;;;;5037353;28;20021;-66
2023/06/19 11:26:52;;;;;;;3.08;2.63;;;26.20;44.30;;;;;;5038705;28;20392;-66
2023/06/19 11:29:20;;;;;;;3.03;2.40;;;26.20;44.30;;;;;;5040485;28;20036;-66
2023/06/19 11:31:47;;;;;;;2.85;2.30;;;26.20;44.20;;;;;;5040117;28;20075;-66
2023/06/19 11:34:13;;;;;;;3.50;2.33;;;26.20;44.30;;;;;;5039278;28;20029;-67
2023/06/19 11:36:39;;;;;;;2.67;2.20;;;26.20;44.40;;;;;;5041434;28;20026;-67
2023/06/19 11:39:11;;;;;;;2.92;2.50;;;26.30;44.60;;;;;;5041245;28;20017;-67
2023/06/19 11:41:36;;;;;;;2.90;2.30;;;26.30;44.40;;;;;;5040051;28;20040;-67
2023/06/19 11:44:09;;;;;;;2.92;2.42;;;26.30;44.40;;;;;;5039884;28;20590;-67
2023/06/19 11:46:34;;;;;;;3.17;2.30;;;26.30;44.40;;;;;;5036028;28;20017;-67
2023/06/19 11:49:18;;;;;;;3.00;2.40;;;26.30;44.40;;;;;;5039211;28;20100;-66
2023/06/19 11:51:44;;;;;;;2.58;2.03;;;26.30;44.60;;;;;;5038597;28;20028;-68
2023/06/19 11:54:11;;;;;;;3.00;2.05;;;26.40;44.60;;;;;;5037661;28;20043;-68
2023/06/19 11:56:41;;;;;;;2.72;2.08;;;26.40;44.60;;;;;;5039613;28;20025;-68
2023/06/19 11:59:08;;;;;;;2.80;2.20;;;26.40;44.50;;;;;;5037173;28;20450;-68
2023/06/19 12:01:35;;;;;;;2.85;2.40;;;26.40;44.40;;;;;;5036619;28;20026;-68
2023/06/19 12:04:01;;;;;;;2.72;2.20;;;26.40;44.60;;;;;;5039404;28;20481;-69
2023/06/19 12:06:28;;;;;;;2.85;2.20;;;26.50;44.60;;;;;;5037865;28;20064;-65
2023/06/19 12:08:54;;;;;;;2.72;2.20;;;26.50;44.60;;;;;;5038976;28;20085;-67
2023/06/19 12:11:19;;;;;;;2.67;2.17;;;26.50;44.60;;;;;;5039068;28;20492;-66
2023/06/19 12:13:45;;;;;;;2.75;2.10;;;26.50;44.60;;;;;;5039366;28;20123;-66
2023/06/19 12:16:11;;;;;;;2.70;2.20;;;26.50;44.60;;;;;;5038832;28;20025;-67
2023/06/19 12:18:37;;;;;;;2.53;2.20;;;26.50;44.60;;;;;;5036437;28;20044;-66
2023/06/19 12:21:03;;;;;;;2.72;2.20;;;26.60;44.50;;;;;;5037294;28;20025;-66
2023/06/19 12:23:29;;;;;;;2.72;2.13;;;26.60;44.60;;;;;;5038586;28;20029;-68
2023/06/19 12:25:55;;;;;;;2.42;2.03;;;26.60;44.70;;;;;;5039457;28;20099;-66
2023/06/19 12:28:21;;;;;;;3.20;2.50;;;26.60;44.60;;;;;;5037546;28;20029;-66
2023/06/19 12:30:50;;;;;;;2.33;2.05;;;26.70;44.60;;;;;;5040601;28;20017;-69
2023/06/19 12:33:17;;;;;;;;;;;26.60;44.50;;;;;;5039378;28;20567;-67
2023/06/19 12:35:44;;;;;;;2.60;2.10;;;26.70;44.60;;;;;;5039504;28;20435;-66
2023/06/19 12:38:10;;;;;;;3.00;2.08;;;26.70;44.40;;;;;;5038972;28;20029;-66
2023/06/19 12:40:39;;;;;;;2.50;2.08;;;26.70;44.30;;;;;;5039197;28;20025;-67
2023/06/19 12:43:04;;;;;;;3.00;2.28;;;26.70;44.40;;;;;;5037285;28;20064;-67
2023/06/19 12:45:30;;;;;;;3.25;2.28;;;26.70;44.50;;;;;;5038489;28;20481;-67
2023/06/19 12:47:56;;;;;;;2.92;2.20;;;26.80;44.50;;;;;;5037200;28;20059;-69